Time;durP1;ratioP1;P1;durP2;ratioP2;P2;SDS_P1;SDS_P2;PMS_P1;PMS_P2;Temp;Humidity;BMP_temperature;BMP_pressure;BME280_temperature;BME280_humidity;BME280_pressure;Samples;Min_cycle;Max_cycle;Signal;HPM_P1;HPM_P2
2022/07/24 08:41:01;;;;;;;14.90;5.60;;;;;;;45.97;12.13;98647.22;4947651;23;20099;-67
2022/07/24 08:43:26;;;;;;;7.80;5.97;;;;;;;45.96;12.17;98645.63;4890157;29;20471;-72
2022/07/24 08:45:52;;;;;;;8.57;5.20;;;;;;;45.83;12.74;98645.72;4884199;29;20451;-80
2022/07/24 08:48:17;;;;;;;9.07;6.10;;;;;;;45.77;12.82;98641.63;4884897;29;20036;-73
2022/07/24 08:50:43;;;;;;;13.90;6.70;;;;;;;45.73;12.78;98637.94;4900537;29;20084;-77
2022/07/24 08:53:10;;;;;;;9.15;6.03;;;;;;;45.64;12.23;98637.31;4869666;29;20123;-76
2022/07/24 08:55:36;;;;;;;10.45;6.30;;;;;;;45.58;12.62;98634.03;4885355;29;20078;-78
2022/07/24 08:58:01;;;;;;;10.13;6.30;;;;;;;45.53;13.17;98623.25;4921084;29;20035;-70
2022/07/24 09:00:28;;;;;;;12.90;6.30;;;;;;;45.46;13.41;98626.63;4922184;29;20050;-80
2022/07/24 09:02:53;;;;;;;10.82;5.63;;;;;;;45.37;13.52;98619.63;4937742;29;20039;-82
2022/07/24 09:05:19;;;;;;;13.13;6.43;;;;;;;45.32;13.56;98617.94;4921740;29;20031;-80
2022/07/24 09:07:44;;;;;;;16.77;6.90;;;;;;;45.25;13.54;98615.78;4921804;29;20517;-80
2022/07/24 09:10:12;;;;;;;9.33;6.40;;;;;;;45.18;13.75;98610.09;4937878;29;20498;-83
2022/07/24 09:12:45;;;;;;;12.30;6.47;;;;;;;45.06;13.53;98613.69;4897065;29;20047;-82
2022/07/24 09:15:17;;;;;;;11.57;6.47;;;;;;;44.93;13.28;98620.38;4910399;29;20419;-79
2022/07/24 09:17:56;;;;;;;9.30;6.68;;;;;;;44.76;13.68;98608.50;4910362;29;20032;-85
2022/07/24 09:20:23;;;;;;;12.57;6.72;;;;;;;44.72;13.13;98607.56;4877260;29;20032;-75
2022/07/24 09:22:49;;;;;;;10.90;6.20;;;;;;;44.64;13.53;98604.97;4890572;29;20396;-81
2022/07/24 09:25:22;;;;;;;9.07;6.10;;;;;;;44.50;13.86;98599.81;4899645;29;20034;-88
2022/07/24 09:27:54;;;;;;;11.73;6.70;;;;;;;44.38;14.22;98600.66;4893789;29;20094;-78
2022/07/24 09:30:34;;;;;;;11.57;6.78;;;;;;;44.25;13.67;98608.09;4891854;29;20143;-78
2022/07/24 09:33:04;;;;;;;12.27;6.40;;;;;;;44.09;13.99;98599.69;4878292;29;20032;-77
2022/07/24 09:35:37;;;;;;;9.77;6.70;;;;;;;43.95;14.17;98602.81;4905979;29;20043;-76
2022/07/24 09:38:03;;;;;;;16.42;6.45;;;;;;;43.85;13.92;98595.78;4877329;29;20035;-78
2022/07/24 09:40:33;;;;;;;13.13;6.72;;;;;;;43.76;14.02;98595.09;4911598;29;20060;-76
2022/07/24 09:43:20;;;;;;;12.25;7.35;;;;;;;43.57;14.19;98592.88;4878915;29;20024;-78
2022/07/24 09:46:00;;;;;;;10.63;6.60;;;;;;;43.30;14.70;98592.31;4906529;29;20556;-78
2022/07/24 09:48:32;;;;;;;13.05;6.53;;;;;;;43.25;14.97;98591.72;4902583;29;20067;-78
2022/07/24 09:51:03;;;;;;;9.38;6.80;;;;;;;43.15;14.87;98587.47;4911334;29;20024;-77
2022/07/24 09:53:30;;;;;;;12.45;6.57;;;;;;;43.01;14.74;98583.03;4859007;29;20095;-82
2022/07/24 09:56:07;;;;;;;11.57;6.32;;;;;;;42.97;15.00;98587.63;4872335;29;20508;-76
2022/07/24 09:58:37;;;;;;;12.60;7.00;;;;;;;42.88;14.95;98575.09;4903379;29;20116;-77
2022/07/24 10:01:03;;;;;;;8.90;6.78;;;;;;;42.64;15.26;98571.88;4887831;29;20047;-76
2022/07/24 10:03:33;;;;;;;13.43;6.30;;;;;;;42.44;15.07;98581.66;4874117;29;20028;-79
2022/07/24 10:06:03;;;;;;;11.07;6.80;;;;;;;42.42;15.42;98566.69;4872985;29;20044;-78
2022/07/24 10:08:30;;;;;;;9.05;6.85;;;;;;;42.31;15.35;98571.75;4873262;29;20135;-78
2022/07/24 10:10:55;;;;;;;12.57;6.15;;;;;;;42.26;15.59;98563.72;4873412;29;20384;-78
2022/07/24 10:13:21;;;;;;;13.13;6.50;;;;;;;42.20;15.61;98567.78;4893571;29;20111;-79
2022/07/24 10:16:16;;;;;;;10.97;6.43;;;;;;;42.10;15.57;98558.78;4881600;29;20044;-77
2022/07/24 10:18:52;;;;;;;15.55;6.53;;;;;;;42.07;15.83;98550.41;4898807;29;20044;-77
2022/07/24 10:21:18;;;;;;;11.30;6.15;;;;;;;42.05;15.84;98549.94;4885290;29;20065;-78
2022/07/24 10:23:46;;;;;;;9.43;6.60;;;;;;;41.96;16.02;98541.75;4887239;29;20048;-80
2022/07/24 10:26:12;;;;;;;11.45;7.35;;;;;;;41.89;16.40;98539.56;4906056;29;20184;-89
2022/07/24 10:28:39;;;;;;;16.65;7.30;;;;;;;41.77;16.08;98531.22;4871122;29;20832;-82
2022/07/24 10:31:11;;;;;;;;;;;;;;;41.69;16.09;98535.56;4905800;29;20031;-82
2022/07/24 10:33:38;;;;;;;13.02;7.25;;;;;;;41.56;16.05;98537.41;4887721;29;19921;-83
2022/07/24 10:36:06;;;;;;;11.23;7.40;;;;;;;41.45;16.23;98527.94;4903408;29;20029;-82
2022/07/24 10:38:37;;;;;;;12.05;7.07;;;;;;;41.35;16.33;98540.03;4870456;29;20135;-87
2022/07/24 10:41:10;;;;;;;10.18;7.10;;;;;;;41.18;16.29;98531.81;4857537;29;20124;-78
2022/07/24 10:43:37;;;;;;;12.68;7.18;;;;;;;41.11;16.56;98531.53;4885960;29;20522;-78
2022/07/24 10:46:03;;;;;;;12.10;7.15;;;;;;;41.07;16.53;98530.56;4905396;29;20060;-82
2022/07/24 10:48:30;;;;;;;19.60;7.40;;;;;;;41.04;16.95;98523.81;4904492;29;20040;-75
2022/07/24 10:51:08;;;;;;;23.20;7.60;;;;;;;40.94;16.99;98516.72;4870295;29;20071;-79
2022/07/24 10:53:36;;;;;;;14.35;6.57;;;;;;;40.74;17.14;98517.34;4902104;29;20504;-73
2022/07/24 10:56:15;;;;;;;17.38;6.72;;;;;;;40.59;17.15;98511.25;4903989;29;20036;-73
2022/07/24 10:58:55;;;;;;;12.52;7.05;;;;;;;40.59;17.32;98504.97;4893809;29;20092;-77
2022/07/24 11:01:44;;;;;;;12.75;7.22;;;;;;;40.53;17.17;98500.78;4888465;29;20040;-77
2022/07/24 11:04:19;;;;;;;14.88;7.35;;;;;;;40.46;17.28;98499.34;4888569;29;20040;-74
2022/07/24 11:07:07;;;;;;;18.00;7.05;;;;;;;39.93;17.89;98482.00;4891472;29;20052;-78
2022/07/24 11:10:11;;;;;;;156.38;10.57;;;;;;;39.40;18.89;98475.50;4903890;29;20136;-78
2022/07/24 11:12:44;;;;;;;27.33;6.80;;;;;;;38.93;19.36;98472.34;4837895;29;20464;-81
2022/07/24 11:17:54;;;;;;;32.92;8.38;;;;;;;39.02;19.56;98472.41;4849206;29;20183;-87
2022/07/24 11:20:22;;;;;;;23.38;7.43;;;;;;;39.10;19.01;98460.75;4851262;29;20049;-76
2022/07/24 11:22:48;;;;;;;37.53;8.05;;;;;;;39.06;19.04;98459.72;4840410;29;20053;-76
2022/07/24 11:25:25;;;;;;;22.75;7.50;;;;;;;39.13;19.43;98451.94;4847475;29;20125;-77
2022/07/24 11:27:58;;;;;;;22.27;7.70;;;;;;;39.24;19.04;98466.13;4832371;29;20425;-82
2022/07/24 11:30:28;;;;;;;20.00;6.68;;;;;;;39.22;19.10;98447.34;4848991;29;20048;-89
2022/07/24 11:32:53;;;;;;;13.07;6.22;;;;;;;39.29;19.42;98455.06;4840319;29;20038;-83
2022/07/24 11:35:33;;;;;;;17.77;6.50;;;;;;;39.42;18.89;98445.97;4832652;29;20049;-80
2022/07/24 11:38:00;;;;;;;14.93;6.32;;;;;;;39.51;19.09;98448.75;4824885;29;20132;-77
2022/07/24 11:40:26;;;;;;;;;;;;;;;39.56;18.87;98445.09;4840766;29;20087;-81
2022/07/24 11:42:56;;;;;;;13.40;6.57;;;;;;;39.65;18.80;98435.00;4832316;29;20036;-82
2022/07/24 11:45:21;;;;;;;13.60;6.03;;;;;;;39.72;18.67;98432.59;4847604;29;20137;-83
2022/07/24 11:47:47;;;;;;;15.88;6.10;;;;;;;39.71;18.73;98427.44;4888926;29;20528;-77
2022/07/24 11:50:12;;;;;;;15.57;6.22;;;;;;;39.80;18.59;98425.56;4874411;29;20058;-80
2022/07/24 11:52:39;;;;;;;10.43;6.10;;;;;;;39.84;18.71;98432.00;4857045;29;20040;-82
2022/07/24 11:55:13;;;;;;;16.85;5.78;;;;;;;39.85;18.82;98421.88;4889426;29;20036;-79
2022/07/24 11:57:40;;;;;;;12.20;5.30;;;;;;;39.81;18.87;98418.97;4881066;29;20530;-81
2022/07/24 12:00:13;;;;;;;;;;;;;;;39.78;18.65;98417.66;4873972;29;20555;-79
2022/07/24 12:02:48;;;;;;;14.18;5.55;;;;;;;39.73;19.00;98414.31;4906615;29;19915;-80
2022/07/24 12:05:14;;;;;;;8.55;5.13;;;;;;;39.70;19.09;98410.28;4866163;29;20032;-78
2022/07/24 12:07:39;;;;;;;11.52;5.03;;;;;;;39.64;19.17;98411.53;4862132;29;20104;-79
2022/07/24 12:10:05;;;;;;;10.25;5.10;;;;;;;39.72;18.99;98407.22;4891085;29;20107;-78
2022/07/24 12:12:40;;;;;;;10.85;5.03;;;;;;;39.80;19.18;98399.06;4872841;29;20476;-77
2022/07/24 12:15:11;;;;;;;10.30;4.88;;;;;;;39.76;19.25;98400.00;4887155;29;20563;-82
2022/07/24 12:18:12;;;;;;;11.68;4.72;;;;;;;39.65;19.22;98401.41;4881751;29;20032;-80
2022/07/24 12:20:42;;;;;;;14.05;4.63;;;;;;;39.65;19.45;98402.22;4828563;29;20074;-84
2022/07/24 12:23:15;;;;;;;10.88;4.57;;;;;;;39.72;18.92;98396.28;4858992;29;20140;-82
2022/07/24 12:25:41;;;;;;;11.77;4.50;;;;;;;39.71;18.98;98392.78;4857762;29;20124;-81
2022/07/24 12:28:15;;;;;;;10.85;4.60;;;;;;;39.81;18.81;98391.66;4843047;29;20124;-85
2022/07/24 12:30:42;;;;;;;11.52;4.25;;;;;;;39.76;19.04;98376.22;4842537;29;20037;-82
2022/07/24 12:33:29;;;;;;;11.00;4.55;;;;;;;39.56;19.34;98380.34;4842705;29;20096;-81
2022/07/24 12:35:59;;;;;;;10.20;4.03;;;;;;;39.45;19.25;98376.28;4842225;29;20045;-81
2022/07/24 12:38:27;;;;;;;9.88;4.28;;;;;;;39.38;19.29;98371.28;4842787;29;20053;-80
2022/07/24 12:41:05;;;;;;;8.10;4.50;;;;;;;39.34;19.34;98369.50;4865396;29;20049;-82
2022/07/24 12:43:30;;;;;;;8.80;4.15;;;;;;;39.34;19.32;98372.22;4860549;29;20181;-83
2022/07/24 12:46:08;;;;;;;6.60;4.10;;;;;;;39.38;19.56;98370.50;4877684;29;20037;-82
2022/07/24 12:48:33;;;;;;;8.27;4.35;;;;;;;39.33;19.21;98376.91;4863563;29;20047;-82
2022/07/24 12:51:03;;;;;;;10.25;3.97;;;;;;;39.40;19.22;98366.31;4878859;29;20036;-81
2022/07/24 12:53:30;;;;;;;9.93;3.97;;;;;;;39.45;19.17;98363.41;4896212;29;20064;-82
2022/07/24 12:56:15;;;;;;;7.53;4.03;;;;;;;39.45;19.31;98354.44;4901516;29;20047;-83
2022/07/24 12:59:00;;;;;;;9.77;3.88;;;;;;;39.37;19.23;98356.03;4886523;29;20407;-82
2022/07/24 13:01:45;;;;;;;15.57;4.10;;;;;;;39.38;19.28;98360.38;4902330;29;20098;-84
2022/07/24 13:04:11;;;;;;;7.03;3.63;;;;;;;39.42;19.25;98352.34;4904259;29;20051;-81
2022/07/24 13:06:40;;;;;;;8.85;4.18;;;;;;;39.32;19.41;98353.44;4886296;29;20494;-83
2022/07/24 13:09:06;;;;;;;9.35;4.07;;;;;;;39.17;19.72;98357.41;4903185;29;20036;-83
2022/07/24 13:11:32;;;;;;;6.93;3.42;;;;;;;38.76;18.64;98360.38;4870806;29;20041;-82
2022/07/24 13:13:57;;;;;;;14.63;3.70;;;;;;;38.51;18.89;98349.81;4897847;29;20119;-83
2022/07/24 13:16:27;;;;;;;13.80;4.47;;;;;;;38.35;19.94;98346.66;4901079;29;20538;-82
2022/07/24 13:18:53;;;;;;;13.95;3.55;;;;;;;38.24;18.62;98339.00;4914353;29;20134;-80
2022/07/24 13:21:19;;;;;;;12.73;3.92;;;;;;;38.11;19.58;98340.66;4914520;29;20035;-84
2022/07/24 13:23:45;;;;;;;15.17;3.90;;;;;;;38.05;19.75;98331.00;4929858;29;20420;-82
2022/07/24 13:26:10;;;;;;;9.88;3.88;;;;;;;37.74;20.40;98335.22;4898099;29;20043;-81
2022/07/24 13:28:36;;;;;;;10.25;3.95;;;;;;;37.51;20.05;98320.69;4898728;29;20036;-82
2022/07/24 13:31:02;;;;;;;12.27;4.13;;;;;;;37.27;20.09;98329.94;4898781;29;20043;-83
2022/07/24 13:33:28;;;;;;;13.95;4.25;;;;;;;37.29;19.75;98322.25;4899291;29;20123;-81
2022/07/24 13:35:53;;;;;;;11.27;3.88;;;;;;;37.44;19.56;98325.78;4899158;29;20627;-83
2022/07/24 13:38:19;;;;;;;16.55;4.03;;;;;;;37.25;20.26;98326.69;4895309;29;20036;-81
2022/07/24 13:40:44;;;;;;;10.98;3.80;;;;;;;37.16;20.22;98314.84;4896090;29;20059;-81
2022/07/24 13:43:10;;;;;;;20.05;4.13;;;;;;;37.18;20.45;98317.28;4891259;29;20035;-81
2022/07/24 13:45:36;;;;;;;7.65;3.70;;;;;;;37.20;20.20;98306.91;4891546;29;20031;-82
2022/07/24 13:48:01;;;;;;;10.13;4.05;;;;;;;37.24;19.98;98306.03;4871659;29;20040;-82
2022/07/24 13:50:28;;;;;;;13.45;4.07;;;;;;;37.16;19.53;98306.69;4883532;29;20057;-83
2022/07/24 13:52:53;;;;;;;13.75;4.00;;;;;;;37.25;19.65;98285.88;4879788;29;20033;-80
2022/07/24 13:55:19;;;;;;;8.90;3.53;;;;;;;37.27;19.56;98296.44;4863541;29;20052;-82
2022/07/24 13:57:44;;;;;;;11.00;3.95;;;;;;;37.41;19.68;98293.72;4896171;29;20071;-82
2022/07/24 14:00:11;;;;;;;11.40;4.38;;;;;;;37.42;19.55;98289.91;4849061;29;20508;-81
2022/07/24 14:02:37;;;;;;;12.90;4.15;;;;;;;37.46;19.41;98282.72;4880047;29;20036;-79
2022/07/24 14:05:02;;;;;;;11.43;3.85;;;;;;;37.26;19.62;98290.22;4895455;29;20041;-82
2022/07/24 14:07:28;;;;;;;11.63;4.03;;;;;;;37.20;18.72;98285.94;4879030;29;20051;-80
2022/07/24 14:09:54;;;;;;;13.57;4.70;;;;;;;37.30;19.18;98274.06;4879929;29;20053;-79
2022/07/24 14:12:21;;;;;;;10.07;3.92;;;;;;;37.29;19.11;98277.88;4898886;29;20094;-81
2022/07/24 14:14:47;;;;;;;16.85;4.22;;;;;;;37.14;19.70;98276.28;4866264;29;20048;-83
2022/07/24 14:17:14;;;;;;;13.70;4.28;;;;;;;37.02;19.72;98278.69;4914232;29;20036;-84
2022/07/24 14:19:40;;;;;;;13.00;4.18;;;;;;;36.75;19.73;98267.53;4880109;29;20066;-80
2022/07/24 14:22:06;;;;;;;19.52;4.25;;;;;;;36.75;19.20;98259.38;4910898;29;20025;-83
2022/07/24 14:24:32;;;;;;;9.88;4.22;;;;;;;36.98;19.70;98261.38;4864945;29;20055;-79
2022/07/24 14:27:00;;;;;;;18.13;4.20;;;;;;;37.06;19.51;98263.38;4887970;29;20514;-81
2022/07/24 14:29:28;;;;;;;18.20;4.20;;;;;;;37.25;19.85;98257.84;4884247;29;20492;-84
2022/07/24 14:31:53;;;;;;;10.55;4.38;;;;;;;37.18;19.47;98254.69;4891454;29;20031;-85
2022/07/24 14:34:19;;;;;;;13.18;4.07;;;;;;;37.06;19.95;98260.66;4878735;29;20491;-84
2022/07/24 14:36:46;;;;;;;9.93;4.03;;;;;;;36.94;19.09;98258.44;4876411;29;20031;-86
2022/07/24 14:39:11;;;;;;;13.32;4.03;;;;;;;36.92;19.01;98255.22;4862239;29;20075;-82
2022/07/24 14:41:38;;;;;;;17.33;4.20;;;;;;;36.82;19.25;98250.00;4883227;29;20080;-79
2022/07/24 14:44:03;;;;;;;13.65;3.97;;;;;;;36.96;18.44;98244.53;4892037;29;20051;-84
2022/07/24 14:46:29;;;;;;;13.55;4.07;;;;;;;36.99;19.13;98252.09;4860600;29;20032;-82
2022/07/24 14:48:55;;;;;;;12.30;4.05;;;;;;;36.94;18.75;98247.56;4916761;29;20508;-82
2022/07/24 14:51:20;;;;;;;15.02;3.83;;;;;;;37.09;19.21;98249.97;4875092;29;20048;-82
2022/07/24 14:53:46;;;;;;;13.52;3.95;;;;;;;37.22;17.90;98253.81;4862158;29;20035;-82
2022/07/24 14:56:11;;;;;;;10.00;4.03;;;;;;;37.37;19.61;98251.88;4867684;29;20052;-83
2022/07/24 14:58:37;;;;;;;10.02;4.00;;;;;;;37.40;19.51;98249.38;4862880;29;20047;-85
2022/07/24 15:01:02;;;;;;;12.52;3.75;;;;;;;37.36;18.14;98247.56;4899069;29;20024;-84
2022/07/24 15:03:28;;;;;;;11.75;4.25;;;;;;;37.40;18.86;98241.22;4889545;29;20112;-83
2022/07/24 15:05:53;;;;;;;8.13;3.83;;;;;;;37.41;18.29;98242.78;4894623;29;20054;-83
2022/07/24 15:08:19;;;;;;;17.17;4.30;;;;;;;37.38;18.97;98250.78;4876856;29;20418;-82
2022/07/24 15:10:44;;;;;;;10.30;4.13;;;;;;;37.47;19.08;98240.78;4896154;29;20508;-81
2022/07/24 15:13:10;;;;;;;12.35;4.10;;;;;;;37.52;17.96;98240.66;4872966;29;20032;-85
2022/07/24 15:15:36;;;;;;;10.20;4.20;;;;;;;37.58;19.41;98242.16;4897955;29;20576;-83
2022/07/24 15:18:03;;;;;;;12.95;3.70;;;;;;;37.53;17.44;98233.28;4886447;29;20025;-86
2022/07/24 15:20:28;;;;;;;15.27;4.07;;;;;;;37.49;18.19;98235.81;4887417;29;20044;-79
2022/07/24 15:22:54;;;;;;;13.45;3.28;;;;;;;37.53;18.83;98244.16;4888001;29;20119;-86
2022/07/24 15:25:19;;;;;;;9.05;3.55;;;;;;;37.51;18.51;98236.31;4884650;29;20479;-83
2022/07/24 15:27:47;;;;;;;11.60;3.40;;;;;;;37.40;15.72;98238.47;4892650;29;20028;-87
2022/07/24 15:30:15;;;;;;;;;;;;;;;37.43;17.35;98231.59;4895291;29;20044;-88
2022/07/24 15:32:40;;;;;;;5.22;3.30;;;;;;;37.29;17.52;98239.78;4898669;29;20457;-85
2022/07/24 15:35:11;;;;;;;8.80;3.72;;;;;;;37.19;18.59;98235.34;4889986;29;20068;-85
2022/07/24 15:37:37;;;;;;;12.73;3.65;;;;;;;37.11;18.42;98233.34;4902765;29;20024;-89
2022/07/24 15:40:04;;;;;;;9.98;3.28;;;;;;;37.03;16.34;98231.34;4914417;29;20044;-82
2022/07/24 15:42:31;;;;;;;10.80;3.40;;;;;;;36.89;17.99;98228.63;4879797;29;20056;-85
2022/07/24 15:44:59;;;;;;;8.07;3.10;;;;;;;36.85;15.42;98233.09;4901660;29;20046;-84
2022/07/24 15:47:25;;;;;;;12.38;3.88;;;;;;;36.85;17.61;98225.72;4901003;29;20058;-77
2022/07/24 15:49:52;;;;;;;8.57;3.50;;;;;;;36.80;17.46;98228.56;4861552;29;20056;-80
2022/07/24 15:52:17;;;;;;;8.02;3.20;;;;;;;36.83;16.87;98233.38;4860717;29;20112;-79
2022/07/24 15:54:44;;;;;;;8.18;3.22;;;;;;;36.80;16.71;98231.28;4857079;29;20178;-79
2022/07/24 15:57:10;;;;;;;5.13;3.20;;;;;;;36.75;17.29;98231.34;4872701;29;20028;-79
2022/07/24 15:59:35;;;;;;;7.38;3.15;;;;;;;36.69;17.46;98241.50;4860210;29;20051;-78
2022/07/24 16:02:01;;;;;;;8.10;3.10;;;;;;;36.61;16.69;98234.06;4858186;29;20078;-81
2022/07/24 16:04:26;;;;;;;7.80;3.40;;;;;;;36.54;17.26;98241.78;4877075;29;20067;-78
2022/07/24 16:06:52;;;;;;;10.25;3.70;;;;;;;36.50;17.30;98238.88;4897313;29;20513;-81
2022/07/24 16:09:19;;;;;;;5.13;3.22;;;;;;;36.46;17.22;98247.91;4897202;29;20059;-83
2022/07/24 16:11:44;;;;;;;8.35;3.42;;;;;;;36.39;16.92;98238.25;4897158;29;20032;-78
2022/07/24 16:14:10;;;;;;;10.27;3.13;;;;;;;36.33;17.86;98246.78;4874483;29;20041;-78
2022/07/24 16:16:36;;;;;;;9.75;3.13;;;;;;;36.24;18.13;98235.75;4880837;29;20040;-78
2022/07/24 16:19:02;;;;;;;13.60;3.42;;;;;;;36.19;17.00;98246.72;4891035;29;20475;-78
2022/07/24 16:21:32;;;;;;;9.50;3.30;;;;;;;36.14;17.34;98246.81;4886433;29;20052;-79
2022/07/24 16:23:57;;;;;;;7.32;3.17;;;;;;;36.09;18.04;98241.44;4896925;29;20033;-78
2022/07/24 16:26:23;;;;;;;11.20;3.35;;;;;;;36.01;17.81;98234.81;4880734;29;20492;-78
2022/07/24 16:28:49;;;;;;;7.60;3.50;;;;;;;36.00;17.10;98250.28;4913296;29;20084;-78
2022/07/24 16:31:15;;;;;;;9.48;3.50;;;;;;;35.97;17.64;98239.22;4881967;29;20560;-78
2022/07/24 16:33:40;;;;;;;9.45;4.15;;;;;;;35.92;18.25;98247.44;4881860;29;20092;-78
2022/07/24 16:36:06;;;;;;;8.30;3.40;;;;;;;35.90;17.94;98245.03;4897513;29;20037;-78
2022/07/24 16:38:33;;;;;;;8.07;3.60;;;;;;;35.84;18.14;98249.72;4881024;29;20041;-79
2022/07/24 16:40:58;;;;;;;9.18;3.70;;;;;;;35.79;18.06;98249.78;4881238;29;20057;-77
2022/07/24 16:43:24;;;;;;;6.07;3.70;;;;;;;35.79;18.25;98252.50;4897617;29;20057;-78
2022/07/24 16:45:49;;;;;;;10.27;3.53;;;;;;;35.75;18.57;98254.19;4866029;29;20037;-78
2022/07/24 16:48:15;;;;;;;5.72;3.80;;;;;;;35.69;18.16;98249.91;4897136;29;20460;-79
2022/07/24 16:50:41;;;;;;;9.27;3.45;;;;;;;35.71;18.26;98263.19;4881496;29;20527;-77
2022/07/24 16:53:07;;;;;;;7.93;3.78;;;;;;;35.62;18.97;98253.00;4881565;29;20039;-78
2022/07/24 16:55:33;;;;;;;5.70;3.38;;;;;;;35.58;18.94;98251.16;4881863;29;20415;-78
2022/07/24 16:57:59;;;;;;;4.80;3.58;;;;;;;35.56;19.04;98256.88;4881306;29;20389;-78
2022/07/24 17:00:24;;;;;;;9.73;3.60;;;;;;;35.50;18.89;98258.06;4896610;29;20052;-78
2022/07/24 17:02:50;;;;;;;6.40;3.80;;;;;;;35.47;19.04;98253.19;4881222;29;20116;-79
2022/07/24 17:05:18;;;;;;;11.77;3.58;;;;;;;35.38;19.36;98253.06;4881351;29;20104;-78
2022/07/24 17:07:43;;;;;;;12.25;4.28;;;;;;;35.26;19.38;98249.97;4884318;29;20444;-77
2022/07/24 17:10:10;;;;;;;7.78;3.60;;;;;;;35.26;19.68;98258.09;4884341;29;20031;-78
2022/07/24 17:12:36;;;;;;;14.23;3.77;;;;;;;35.19;18.85;98260.31;4900179;29;20484;-77
2022/07/24 17:15:02;;;;;;;7.50;3.53;;;;;;;35.12;19.67;98260.69;4884499;29;20419;-76
2022/07/24 17:17:57;;;;;;;11.65;3.78;;;;;;;35.10;19.67;98269.09;4899982;29;20054;-78
2022/07/24 17:20:14;;;;;;;11.05;3.60;;;;;;;35.04;20.16;98269.47;4902356;29;20047;-78
2022/07/24 17:22:40;;;;;;;8.07;3.75;;;;;;;34.95;19.54;98258.47;4899609;29;20040;-78
2022/07/24 17:25:06;;;;;;;7.95;3.78;;;;;;;34.90;19.60;98267.47;4883644;29;20510;-78
2022/07/24 17:27:31;;;;;;;6.82;3.47;;;;;;;34.82;19.72;98267.28;4884058;29;20123;-78
2022/07/24 17:29:57;;;;;;;7.20;3.75;;;;;;;34.75;19.91;98264.91;4883854;29;20055;-79
2022/07/24 17:32:22;;;;;;;12.57;3.72;;;;;;;34.72;19.85;98266.25;4883655;29;20067;-77
2022/07/24 17:34:48;;;;;;;8.38;3.83;;;;;;;34.63;19.80;98270.69;4898688;29;20044;-78
2022/07/24 17:37:13;;;;;;;6.85;3.83;;;;;;;34.57;19.91;98264.53;4899291;29;20055;-78
2022/07/24 17:39:39;;;;;;;9.75;3.90;;;;;;;34.52;20.15;98272.72;4883871;29;20071;-79
2022/07/24 17:42:05;;;;;;;11.40;3.80;;;;;;;34.43;19.76;98266.28;4879970;29;20126;-79
2022/07/24 17:44:32;;;;;;;9.85;3.75;;;;;;;34.41;20.18;98274.69;4867967;29;20040;-77
2022/07/24 17:47:00;;;;;;;7.78;3.85;;;;;;;34.33;20.52;98277.19;4868513;29;20036;-79
2022/07/24 17:49:26;;;;;;;10.15;4.47;;;;;;;34.25;20.31;98273.19;4900304;29;20155;-78
2022/07/24 17:51:52;;;;;;;9.52;4.40;;;;;;;34.20;20.65;98275.94;4868482;29;20127;-77
2022/07/24 17:54:18;;;;;;;10.25;4.95;;;;;;;34.12;20.94;98274.63;4868511;29;20036;-78
2022/07/24 17:56:43;;;;;;;12.73;4.07;;;;;;;34.06;20.93;98281.16;4883645;29;20043;-79
2022/07/24 17:59:09;;;;;;;11.40;4.40;;;;;;;34.00;20.63;98275.00;4899439;29;20043;-78
2022/07/24 18:01:36;;;;;;;10.57;4.18;;;;;;;33.94;20.71;98292.38;4884202;29;20067;-78
2022/07/24 18:04:02;;;;;;;9.50;4.10;;;;;;;33.90;20.85;98299.44;4899468;29;20111;-79
2022/07/24 18:06:27;;;;;;;8.27;4.45;;;;;;;33.82;20.92;98294.59;4883621;29;20036;-79
2022/07/24 18:08:53;;;;;;;8.32;4.20;;;;;;;33.81;21.23;98306.50;4868334;29;20472;-78
2022/07/24 18:11:20;;;;;;;9.55;4.85;;;;;;;33.78;21.13;98302.50;4899378;29;20048;-77
2022/07/24 18:13:47;;;;;;;10.98;4.35;;;;;;;33.71;20.82;98296.56;4902083;29;20039;-79
2022/07/24 18:16:13;;;;;;;7.82;4.05;;;;;;;33.69;21.31;98309.53;4887924;29;20518;-80
2022/07/24 18:18:38;;;;;;;8.68;4.10;;;;;;;33.67;21.31;98307.13;4892034;29;20162;-79
2022/07/24 18:21:04;;;;;;;10.98;5.05;;;;;;;33.63;21.39;98318.78;4899503;29;20045;-79
2022/07/24 18:23:30;;;;;;;10.90;5.75;;;;;;;33.57;21.48;98328.00;4884139;29;20156;-77
2022/07/24 18:25:55;;;;;;;10.10;4.40;;;;;;;33.59;21.37;98325.81;4899975;29;20463;-79
2022/07/24 18:28:21;;;;;;;8.52;3.92;;;;;;;33.58;21.20;98338.56;4884058;29;20131;-78
2022/07/24 18:30:47;;;;;;;10.82;4.47;;;;;;;33.56;21.23;98348.84;4884056;29;20029;-78
2022/07/24 18:33:13;;;;;;;11.18;4.15;;;;;;;33.57;21.00;98366.69;4883636;29;20419;-78
2022/07/24 18:35:39;;;;;;;11.70;4.18;;;;;;;33.56;21.07;98369.66;4900019;29;20037;-77
2022/07/24 18:38:06;;;;;;;8.90;4.43;;;;;;;33.53;21.12;98374.56;4883722;29;20403;-78
2022/07/24 18:40:32;;;;;;;8.80;4.70;;;;;;;33.45;21.65;98369.72;4898850;29;20435;-77
2022/07/24 18:42:58;;;;;;;8.07;4.25;;;;;;;33.47;21.26;98385.69;4899575;29;20028;-78
2022/07/24 18:45:23;;;;;;;10.85;4.10;;;;;;;33.42;21.66;98391.09;4883966;29;20044;-78
2022/07/24 18:47:49;;;;;;;11.48;4.57;;;;;;;33.38;21.99;98390.81;4883361;29;20033;-78
2022/07/24 18:50:15;;;;;;;9.25;4.85;;;;;;;33.33;21.82;98388.94;4899708;29;20037;-79
2022/07/24 18:52:41;;;;;;;10.57;4.70;;;;;;;33.31;21.95;98396.53;4882354;29;20253;-80
2022/07/24 18:55:08;;;;;;;6.68;4.70;;;;;;;33.29;22.00;98381.66;4902282;29;20528;-79
2022/07/24 18:57:35;;;;;;;11.85;4.03;;;;;;;33.27;22.14;98381.97;4871086;29;20048;-79
2022/07/24 19:00:00;;;;;;;16.42;4.68;;;;;;;33.28;22.13;98390.88;4871112;29;20040;-79
2022/07/24 19:02:28;;;;;;;10.48;4.50;;;;;;;33.21;22.32;98383.06;4886305;29;20040;-81
2022/07/24 19:04:54;;;;;;;9.95;4.50;;;;;;;33.19;22.37;98387.91;4887061;29;20032;-79
2022/07/24 19:07:20;;;;;;;15.38;4.65;;;;;;;33.18;22.48;98397.13;4886576;29;20407;-79
2022/07/24 19:09:45;;;;;;;8.65;4.00;;;;;;;33.15;22.21;98392.22;4886527;29;20038;-77
2022/07/24 19:12:12;;;;;;;10.93;3.95;;;;;;;33.11;22.37;98386.53;4886561;29;20385;-78
2022/07/24 19:14:38;;;;;;;11.02;4.57;;;;;;;33.04;22.64;98372.50;4886939;29;20047;-78
2022/07/24 19:17:04;;;;;;;8.35;4.70;;;;;;;32.98;22.40;98369.00;4902154;29;20028;-78
2022/07/24 19:19:29;;;;;;;9.18;4.50;;;;;;;33.02;22.58;98381.97;4871217;29;20039;-78
2022/07/24 19:21:55;;;;;;;11.52;4.40;;;;;;;32.97;22.83;98378.19;4902164;29;20119;-78
2022/07/24 19:24:21;;;;;;;7.93;4.40;;;;;;;32.95;22.56;98377.63;4869660;29;20051;-78
2022/07/24 19:26:46;;;;;;;8.70;4.90;;;;;;;32.91;22.52;98375.75;4870894;29;20130;-79
2022/07/24 19:29:12;;;;;;;12.52;5.32;;;;;;;32.86;22.87;98364.94;4870867;29;20498;-79
2022/07/24 19:31:37;;;;;;;8.25;4.90;;;;;;;32.84;23.45;98376.03;4886186;29;20036;-78
2022/07/24 19:34:03;;;;;;;11.10;4.47;;;;;;;32.77;23.36;98362.81;4870915;29;20412;-79
2022/07/24 19:36:31;;;;;;;9.68;4.40;;;;;;;32.76;23.66;98379.28;4870705;29;20040;-79
2022/07/24 19:38:59;;;;;;;11.38;4.88;;;;;;;32.71;23.75;98376.59;4888737;29;20464;-80
2022/07/24 19:41:25;;;;;;;9.98;4.72;;;;;;;32.68;23.96;98379.84;4883736;29;20069;-78
2022/07/24 19:43:52;;;;;;;8.13;4.50;;;;;;;32.61;24.26;98388.19;4864329;29;20032;-77
2022/07/24 19:46:17;;;;;;;8.57;4.43;;;;;;;32.53;24.07;98384.13;4879879;29;20045;-77
2022/07/24 19:48:45;;;;;;;13.98;4.90;;;;;;;32.53;24.49;98389.53;4848207;29;20045;-78
2022/07/24 19:51:10;;;;;;;8.82;4.50;;;;;;;32.49;24.93;98391.16;4879076;29;20044;-78
2022/07/24 19:53:37;;;;;;;10.60;4.28;;;;;;;32.49;25.19;98390.34;4864061;29;20045;-79
2022/07/24 19:56:03;;;;;;;8.93;3.90;;;;;;;32.41;25.36;98380.88;4864171;29;20051;-79
2022/07/24 19:58:29;;;;;;;7.38;4.10;;;;;;;32.39;25.28;98386.56;4879311;29;20041;-77
2022/07/24 20:00:56;;;;;;;9.50;4.20;;;;;;;32.39;25.56;98396.56;4887897;29;20032;-76
2022/07/24 20:03:22;;;;;;;;;;;;;;;32.36;25.63;98405.19;4869779;29;20072;-73
2022/07/24 20:05:47;;;;;;;11.27;4.45;;;;;;;32.30;25.94;98398.94;4889380;29;20301;-80
2022/07/24 20:08:13;;;;;;;12.60;4.78;;;;;;;32.27;26.36;98404.88;4875012;29;20111;-79
2022/07/24 20:10:38;;;;;;;9.98;4.30;;;;;;;32.24;26.56;98394.63;4853317;29;20520;-81
2022/07/24 20:13:06;;;;;;;;;;;;;;;32.24;26.60;98391.91;4862736;29;20041;-82
2022/07/24 20:15:33;;;;;;;10.40;4.45;;;;;;;32.19;26.84;98391.91;4898424;29;19968;-79